Time;durP1;ratioP1;P1;durP2;ratioP2;P2;SDS_P1;SDS_P2;PMS_P1;PMS_P2;Temp;Humidity;BMP_temperature;BMP_pressure;BME280_temperature;BME280_humidity;BME280_pressure;Samples;Min_cycle;Max_cycle;Signal;HPM_P1;HPM_P2
2023/01/02 00:01:04;;;;;;;16.47;7.50;;;;;;;21.83;49.17;100982.34;5094553;28;20447;-67
2023/01/02 00:03:30;;;;;;;14.55;7.45;;;;;;;21.00;50.83;100974.28;5111033;28;20027;-67
2023/01/02 00:05:55;;;;;;;18.42;7.38;;;;;;;21.71;49.36;100977.69;5093059;28;20031;-67
2023/01/02 00:08:21;;;;;;;11.82;6.32;;;;;;;21.49;50.13;100978.81;5093429;28;20027;-68
2023/01/02 00:10:46;;;;;;;16.27;7.00;;;;;;;21.59;48.97;100975.72;5105044;27;20505;-67
2023/01/02 00:13:12;;;;;;;12.45;6.75;;;;;;;21.19;50.29;100976.84;5122506;27;20065;-67
2023/01/02 00:15:37;;;;;;;15.25;7.28;;;;;;;21.24;50.62;100967.75;5111355;28;20142;-67
2023/01/02 00:18:03;;;;;;;17.40;6.93;;;;;;;21.39;50.05;100969.63;5109524;28;20492;-67
2023/01/02 00:20:28;;;;;;;16.95;7.25;;;;;;;21.39;50.20;100959.00;5092588;28;20023;-67
2023/01/02 00:22:54;;;;;;;10.77;6.60;;;;;;;22.12;47.46;100942.59;5094102;28;20027;-67
2023/01/02 00:25:19;;;;;;;14.40;7.07;;;;;;;22.37;47.26;100949.22;5103130;27;20027;-67
2023/01/02 00:27:44;;;;;;;16.45;7.07;;;;;;;22.65;46.13;100942.25;5109287;28;20023;-67
2023/01/02 00:30:10;;;;;;;21.08;7.28;;;;;;;22.00;47.78;100940.63;5109882;28;20114;-67
2023/01/02 00:32:36;;;;;;;16.63;6.75;;;;;;;21.97;47.28;100935.50;5109528;28;20031;-67
2023/01/02 00:35:01;;;;;;;16.83;7.30;;;;;;;22.44;47.12;100936.41;5093312;28;20028;-67
2023/01/02 00:37:26;;;;;;;23.50;7.72;;;;;;;22.41;46.51;100934.78;5093702;27;20023;-67
2023/01/02 00:39:52;;;;;;;14.27;6.95;;;;;;;22.50;46.23;100931.59;5113904;27;20482;-67
2023/01/02 00:42:17;;;;;;;17.10;7.28;;;;;;;21.37;49.16;100946.72;5114063;27;20048;-67
2023/01/02 00:44:42;;;;;;;14.48;6.80;;;;;;;21.81;48.44;100941.66;5099014;28;20543;-67
2023/01/02 00:47:08;;;;;;;13.20;7.10;;;;;;;22.09;47.64;100940.13;5111506;28;20024;-67
2023/01/02 00:49:33;;;;;;;16.20;7.72;;;;;;;21.59;49.18;100941.97;5110131;28;20027;-67
2023/01/02 00:51:59;;;;;;;20.48;8.00;;;;;;;22.15;47.62;100929.13;5093666;28;20024;-67
2023/01/02 00:54:24;;;;;;;23.02;8.02;;;;;;;22.60;46.59;100923.03;5110289;27;20027;-67
2023/01/02 00:56:49;;;;;;;16.95;8.27;;;;;;;22.40;46.74;100925.06;5111741;28;20026;-67
2023/01/02 00:59:15;;;;;;;17.40;8.18;;;;;;;22.74;45.56;100936.41;5092500;28;20031;-67
2023/01/02 01:01:40;;;;;;;16.77;7.75;;;;;;;22.60;45.70;100923.91;5114994;27;20524;-67
2023/01/02 01:04:05;;;;;;;16.35;8.15;;;;;;;22.80;45.43;100925.34;5102229;28;20142;-67
2023/01/02 01:06:32;;;;;;;16.25;7.78;;;;;;;;;;5093131;28;20020;-67
2023/01/02 01:08:58;;;;;;;20.95;9.40;;;;;;;22.38;46.66;100919.00;5108614;28;20034;-67
2023/01/02 01:11:23;;;;;;;20.25;8.15;;;;;;;22.11;46.74;100916.09;5119526;27;20035;-67
2023/01/02 01:13:50;;;;;;;14.20;7.57;;;;;;;22.22;47.50;100908.31;5110386;28;20397;-67
2023/01/02 01:16:17;;;;;;;20.35;8.30;;;;;;;22.31;46.30;100901.59;5110977;28;20051;-67
2023/01/02 01:18:44;;;;;;;20.00;8.55;;;;;;;22.62;46.31;100899.84;5091538;28;20015;-67
2023/01/02 01:21:15;;;;;;;14.05;9.25;;;;;;;22.41;45.88;100888.63;5092142;28;20024;-67
2023/01/02 01:23:41;;;;;;;18.08;8.32;;;;;;;22.86;45.73;100876.16;5095253;28;20027;-67
2023/01/02 01:26:09;;;;;;;13.35;7.95;;;;;;;22.19;46.49;100888.06;5110343;28;20030;-67
2023/01/02 01:28:35;;;;;;;14.10;8.38;;;;;;;22.40;46.41;100885.13;5110830;28;20023;-67
2023/01/02 01:31:06;;;;;;;19.23;8.10;;;;;;;21.92;47.45;100884.34;5092998;28;20493;-67
2023/01/02 01:33:32;;;;;;;23.95;7.32;;;;;;;21.74;47.43;100892.41;5092345;28;20019;-67
2023/01/02 01:36:14;;;;;;;18.40;8.77;;;;;;;22.64;46.41;100888.16;5091192;28;20031;-67
2023/01/02 01:38:39;;;;;;;17.45;8.50;;;;;;;22.25;46.84;100891.31;5107202;28;20031;-67
2023/01/02 01:41:06;;;;;;;19.15;7.78;;;;;;;22.05;47.07;100898.66;5124093;28;20068;-67
2023/01/02 01:43:49;;;;;;;18.83;7.53;;;;;;;22.17;47.63;100892.63;5112127;28;20406;-67
2023/01/02 01:46:17;;;;;;;;;;;;;;;22.19;47.12;100897.88;5132084;28;20106;-67
2023/01/02 01:48:43;;;;;;;18.13;7.47;;;;;;;22.50;46.75;100906.75;5127451;28;19912;-67
2023/01/02 01:51:09;;;;;;;18.35;6.88;;;;;;;21.97;47.73;100906.22;5110667;28;20109;-67
2023/01/02 01:53:34;;;;;;;14.30;7.28;;;;;;;22.07;47.83;100914.53;5091556;28;20012;-67
2023/01/02 01:56:04;;;;;;;18.52;7.07;;;;;;;21.12;49.72;100926.78;5119294;28;20035;-67
2023/01/02 01:58:38;;;;;;;16.02;6.85;;;;;;;21.33;49.87;100914.13;5109555;28;20019;-66
2023/01/02 02:01:04;;;;;;;17.27;7.07;;;;;;;20.88;51.05;100918.28;5092696;28;20047;-66
2023/01/02 02:03:32;;;;;;;15.07;6.57;;;;;;;21.38;49.75;100922.72;5089498;28;20638;-66
2023/01/02 02:05:58;;;;;;;16.33;7.30;;;;;;;21.50;49.98;100922.03;5110479;28;20016;-66
2023/01/02 02:08:30;;;;;;;14.07;6.70;;;;;;;20.91;51.03;100929.59;5110726;28;20028;-67
2023/01/02 02:10:58;;;;;;;15.33;6.40;;;;;;;21.08;50.82;100931.38;5130006;28;20035;-67
2023/01/02 02:13:23;;;;;;;13.77;6.45;;;;;;;21.47;50.71;100927.53;5106740;28;20112;-66
2023/01/02 02:15:57;;;;;;;17.60;6.50;;;;;;;21.48;50.05;100923.91;5111038;28;20046;-67
2023/01/02 02:19:03;;;;;;;19.05;7.75;;;;;;;21.57;50.63;100925.25;5090916;28;20023;-66
2023/01/02 02:22:00;;;;;;;13.55;6.35;;;;;;;21.39;50.58;100929.75;5091345;28;20046;-67
2023/01/02 02:24:55;;;;;;;16.60;6.50;;;;;;;21.08;51.94;100934.03;5115260;28;20027;-66
2023/01/02 02:28:08;;;;;;;14.35;6.53;;;;;;;21.42;51.20;100924.25;5090225;28;20028;-66
2023/01/02 02:30:39;;;;;;;15.15;7.13;;;;;;;20.93;52.48;100910.94;5056489;28;20041;-66
2023/01/02 02:33:43;;;;;;;13.90;6.60;;;;;;;20.88;53.05;100923.59;5105837;28;20023;-67
2023/01/02 02:36:25;;;;;;;17.90;6.85;;;;;;;19.74;56.18;100925.56;5086148;28;20101;-67
2023/01/02 02:38:58;;;;;;;11.88;6.60;;;;;;;21.06;53.70;100917.31;5122159;27;20374;-67
2023/01/02 02:42:00;;;;;;;16.33;7.18;;;;;;;21.24;52.34;100911.94;5109539;28;20055;-67
2023/01/02 02:44:38;;;;;;;20.45;7.03;;;;;;;20.00;55.18;100918.16;5114271;28;20031;-67
2023/01/02 02:47:14;;;;;;;16.33;6.85;;;;;;;20.10;56.09;100914.13;5094382;28;20503;-67
2023/01/02 02:49:58;;;;;;;10.63;6.47;;;;;;;20.81;54.51;100913.28;5094114;28;20100;-67
2023/01/02 02:52:43;;;;;;;19.03;7.90;;;;;;;20.68;54.60;100912.19;5094587;27;20114;-67
2023/01/02 02:55:17;;;;;;;11.98;5.88;;;;;;;20.64;54.80;100906.13;5093665;28;20028;-67
2023/01/02 02:57:45;;;;;;;14.55;6.20;;;;;;;20.34;55.24;100903.25;5075600;28;20093;-67
2023/01/02 03:00:18;;;;;;;18.40;6.77;;;;;;;20.42;55.81;100900.22;5100852;28;20097;-67
2023/01/02 03:02:44;;;;;;;17.10;6.03;;;;;;;21.32;51.67;100896.44;5094676;28;20034;-67
2023/01/02 03:05:15;;;;;;;18.38;6.70;;;;;;;20.79;54.92;100893.91;5094816;28;20487;-67
2023/01/02 03:08:00;;;;;;;16.42;6.13;;;;;;;20.59;55.20;100896.69;5099160;27;20027;-67
2023/01/02 03:11:01;;;;;;;12.23;5.57;;;;;;;19.91;57.38;100889.44;5125121;27;20152;-67
2023/01/02 03:13:42;;;;;;;15.02;6.10;;;;;;;20.13;55.53;100879.50;5094470;28;20031;-67
2023/01/02 03:16:27;;;;;;;17.55;6.57;;;;;;;21.32;52.95;100883.16;5114020;28;20062;-67
2023/01/02 03:19:01;;;;;;;11.75;5.90;;;;;;;20.56;54.51;100881.78;5095194;28;20423;-67
2023/01/02 03:21:46;;;;;;;14.23;5.93;;;;;;;20.33;56.52;100890.91;5092801;28;20039;-67
2023/01/02 03:24:15;;;;;;;12.68;5.90;;;;;;;20.36;57.10;100889.88;5092042;28;20126;-67
2023/01/02 03:26:44;;;;;;;15.02;5.28;;;;;;;19.32;60.34;100897.44;5110764;28;20019;-67
2023/01/02 03:29:20;;;;;;;18.38;7.03;;;;;;;19.80;57.68;100882.84;5093680;28;20031;-67
2023/01/02 03:31:52;;;;;;;13.20;5.60;;;;;;;20.15;57.08;100882.94;5112921;28;20035;-67
2023/01/02 03:34:22;;;;;;;14.93;5.82;;;;;;;20.69;54.62;100887.38;5112445;28;20073;-67
2023/01/02 03:36:54;;;;;;;16.20;6.00;;;;;;;20.31;55.27;100887.47;5093863;28;20035;-67
2023/01/02 03:39:26;;;;;;;17.43;5.53;;;;;;;19.76;58.63;100891.84;5119984;27;20034;-67
2023/01/02 03:41:58;;;;;;;16.27;5.20;;;;;;;20.56;53.86;100896.84;5107886;28;20779;-67
2023/01/02 03:44:30;;;;;;;11.65;5.18;;;;;;;19.82;58.07;100896.91;5094615;28;20372;-67
2023/01/02 03:47:06;;;;;;;14.68;5.38;;;;;;;20.11;58.94;100899.94;5093982;28;20030;-67
2023/01/02 03:49:37;;;;;;;15.65;4.90;;;;;;;19.60;59.50;100907.63;5110348;28;20039;-67
2023/01/02 03:52:03;;;;;;;10.85;5.13;;;;;;;20.26;56.00;100913.38;5104111;27;20066;-67
2023/01/02 03:54:29;;;;;;;11.73;5.30;;;;;;;19.56;60.22;100900.72;5124296;27;20055;-67
2023/01/02 03:56:57;;;;;;;13.52;4.88;;;;;;;19.26;62.63;100908.31;5110974;28;20024;-67
2023/01/02 03:59:53;;;;;;;13.48;4.45;;;;;;;19.73;58.63;100907.03;5107045;27;20031;-67
2023/01/02 04:02:41;;;;;;;16.27;5.65;;;;;;;20.20;57.23;100895.13;5133277;27;20147;-67
2023/01/02 04:05:31;;;;;;;8.70;4.57;;;;;;;19.77;58.23;100913.91;5094135;28;20036;-67
2023/01/02 04:08:10;;;;;;;14.95;5.72;;;;;;;19.98;59.16;100909.44;5117495;27;20376;-67
2023/01/02 04:10:37;;;;;;;12.35;4.80;;;;;;;19.06;61.00;100912.72;5090514;28;20031;-67
2023/01/02 04:13:10;;;;;;;10.27;4.40;;;;;;;19.00;62.70;100918.31;5109840;28;20023;-67
2023/01/02 04:15:38;;;;;;;11.20;5.05;;;;;;;19.14;63.01;100910.59;5094175;28;20086;-67
2023/01/02 04:18:46;;;;;;;14.68;5.00;;;;;;;19.78;59.46;100921.81;5109815;28;20496;-67
2023/01/02 04:21:20;;;;;;;12.55;4.90;;;;;;;19.42;60.76;100925.22;4998987;28;20088;-67
2023/01/02 04:23:58;;;;;;;13.05;5.53;;;;;;;20.99;55.96;100918.56;5015418;28;20037;-67
2023/01/02 04:26:30;;;;;;;15.02;5.18;;;;;;;20.39;56.71;100922.47;5062005;28;20101;-67
2023/01/02 04:28:55;;;;;;;17.27;6.07;;;;;;;19.08;62.06;100932.06;5091441;28;20039;-67
2023/01/02 04:31:27;;;;;;;7.82;5.10;;;;;;;19.25;62.19;100933.09;5092462;28;20032;-67
2023/01/02 04:33:57;;;;;;;11.65;5.70;;;;;;;19.49;61.21;100932.00;5093775;27;20028;-67
2023/01/02 04:36:23;;;;;;;15.73;5.20;;;;;;;19.86;58.76;100931.25;5114416;27;20030;-67
2023/01/02 04:38:48;;;;;;;12.98;5.20;;;;;;;19.36;61.86;100938.78;5130552;27;20050;-67
2023/01/02 04:41:18;;;;;;;12.48;5.55;;;;;;;19.75;61.10;100935.19;5092555;28;20058;-67
2023/01/02 04:43:43;;;;;;;12.68;5.80;;;;;;;19.65;61.62;100947.19;5112605;27;20024;-67
2023/01/02 04:46:09;;;;;;;14.32;5.65;;;;;;;20.41;58.60;100939.16;5093082;28;20042;-67
2023/01/02 04:48:34;;;;;;;12.55;5.50;;;;;;;19.23;59.99;100958.78;5110989;28;20047;-66
2023/01/02 04:50:59;;;;;;;12.18;6.00;;;;;;;18.85;65.33;100978.06;5092370;28;20023;-67
2023/01/02 04:53:25;;;;;;;8.55;6.38;;;;;;;18.93;61.46;100990.97;5092029;28;20043;-66
2023/01/02 04:55:55;;;;;;;7.57;4.90;;;;;;;18.07;61.61;101012.03;5093769;28;20065;-67
2023/01/02 04:58:21;;;;;;;5.00;3.80;;;;;;;18.04;61.56;101022.75;5100068;27;20127;-67
2023/01/02 05:00:46;;;;;;;5.90;3.53;;;;;;;18.50;59.64;101013.91;5100857;28;20057;-67
2023/01/02 05:03:12;;;;;;;4.03;2.63;;;;;;;17.48;62.27;101038.88;5093524;28;20099;-66
2023/01/02 05:05:37;;;;;;;3.17;2.30;;;;;;;17.69;62.51;101045.16;5111655;28;20019;-67
2023/01/02 05:08:02;;;;;;;2.83;2.00;;;;;;;18.33;59.70;101059.56;5087966;28;20052;-66
2023/01/02 05:10:28;;;;;;;6.33;2.40;;;;;;;18.32;58.83;101058.69;5113712;27;20032;-67
2023/01/02 05:12:53;;;;;;;3.63;2.37;;;;;;;17.84;59.19;101075.47;5113767;27;20034;-66
2023/01/02 05:15:18;;;;;;;2.50;2.30;;;;;;;18.88;56.37;101077.72;5131202;27;20033;-67
2023/01/02 05:17:44;;;;;;;2.30;2.10;;;;;;;18.28;57.21;101072.97;5112757;27;20028;-67
2023/01/02 05:20:11;;;;;;;4.63;1.63;;;;;;;18.75;56.28;101072.91;5111109;28;20111;-66
2023/01/02 05:25:22;;;;;;;1.53;1.40;;;;;;;18.92;54.59;101081.97;5129871;27;20502;-67
2023/01/02 05:27:54;;;;;;;1.93;1.47;;;;;;;18.80;53.40;101092.09;5109768;28;20034;-67
2023/01/02 05:30:20;;;;;;;3.43;1.60;;;;;;;18.80;54.49;101097.38;5092273;28;20447;-67
2023/01/02 05:32:45;;;;;;;2.53;1.87;;;;;;;17.51;56.87;101107.47;5100378;27;20035;-67
2023/01/02 05:35:11;;;;;;;2.00;1.80;;;;;;;18.36;55.70;101107.09;5113229;27;20023;-67
2023/01/02 05:37:36;;;;;;;2.80;2.00;;;;;;;18.55;54.73;101117.84;5114164;28;20028;-68
2023/01/02 05:40:02;;;;;;;2.20;1.93;;;;;;;19.10;53.49;101118.28;5113207;28;20023;-67
2023/01/02 05:42:28;;;;;;;2.27;2.03;;;;;;;18.28;55.96;101131.19;5107292;28;20541;-67
2023/01/02 05:44:53;;;;;;;3.17;2.13;;;;;;;17.89;56.05;101144.94;5110325;28;20043;-67
2023/01/02 05:47:18;;;;;;;3.27;2.40;;;;;;;18.21;57.26;101148.22;5091525;28;20425;-67
2023/01/02 05:49:44;;;;;;;3.93;2.43;;;;;;;18.02;57.15;101167.38;5109784;28;20111;-67
2023/01/02 05:52:09;;;;;;;3.10;2.57;;;;;;;17.21;58.61;101163.06;5092967;28;20031;-68
2023/01/02 05:54:34;;;;;;;4.90;2.83;;;;;;;17.23;59.60;101158.63;5116072;28;20448;-67
2023/01/02 05:57:00;;;;;;;4.43;3.33;;;;;;;17.92;56.93;101160.72;5110778;28;20031;-67
2023/01/02 05:59:25;;;;;;;3.97;3.13;;;;;;;17.55;59.53;101175.16;5109991;28;20035;-67
2023/01/02 06:01:50;;;;;;;8.10;3.63;;;;;;;17.94;57.31;101188.81;5109626;28;20473;-67
2023/01/02 06:04:16;;;;;;;6.20;4.47;;;;;;;18.45;55.71;101201.97;5093184;28;20035;-67
2023/01/02 06:06:41;;;;;;;4.73;4.23;;;;;;;18.16;58.02;101201.25;5102531;27;20127;-67
2023/01/02 06:09:07;;;;;;;6.70;4.87;;;;;;;17.99;56.43;101193.94;5135437;27;20038;-67
2023/01/02 06:11:35;;;;;;;7.60;5.40;;;;;;;17.50;58.58;101201.72;5100465;28;20023;-67
2023/01/02 06:14:00;;;;;;;7.63;5.20;;;;;;;18.21;56.61;101203.75;5110814;28;20359;-67
2023/01/02 06:16:25;;;;;;;7.70;5.73;;;;;;;18.70;54.64;101212.53;5095296;28;20034;-67
2023/01/02 06:18:52;;;;;;;10.10;6.40;;;;;;;18.45;54.86;101217.88;5114787;28;20382;-67
2023/01/02 06:21:19;;;;;;;11.63;6.73;;;;;;;18.30;55.47;101208.72;5110051;27;20023;-67
2023/01/02 06:23:45;;;;;;;12.30;7.30;;;;;;;19.14;52.61;101223.22;5111355;28;20042;-67
2023/01/02 06:26:16;;;;;;;14.23;7.30;;;;;;;19.03;52.11;101229.84;5114768;28;20127;-67
2023/01/02 06:28:42;;;;;;;10.13;6.20;;;;;;;18.00;55.19;101238.00;5112356;28;20035;-67
2023/01/02 06:31:16;;;;;;;8.87;3.83;;;;;;;17.33;59.95;101247.22;5095822;28;20027;-67
2023/01/02 06:33:42;;;;;;;8.17;3.23;;;;;;;18.26;55.56;101242.38;5100450;27;20456;-67
2023/01/02 06:36:13;;;;;;;6.47;3.10;;;;;;;18.17;55.97;101265.63;5079646;27;20058;-67
2023/01/02 06:38:39;;;;;;;6.93;3.27;;;;;;;17.36;57.27;101262.94;5095069;28;20386;-67
2023/01/02 06:41:06;;;;;;;6.43;4.00;;;;;;;17.40;58.44;101271.66;5096039;28;20019;-67
2023/01/02 06:43:32;;;;;;;10.00;3.03;;;;;;;17.90;55.20;101268.25;5094751;28;20055;-67
2023/01/02 06:46:03;;;;;;;9.53;3.43;;;;;;;18.07;54.09;101276.53;5113081;28;20039;-66
2023/01/02 06:48:30;;;;;;;10.47;3.00;;;;;;;18.14;54.53;101283.31;5095885;28;20027;-67
2023/01/02 06:50:56;;;;;;;6.77;3.20;;;;;;;18.30;53.73;101288.09;5095915;27;20114;-66
2023/01/02 06:53:21;;;;;;;7.37;2.73;;;;;;;17.08;55.88;101289.38;5115797;27;20110;-67
2023/01/02 06:55:55;;;;;;;6.23;2.57;;;;;;;17.70;55.68;101293.59;5108745;28;20028;-66
2023/01/02 06:58:21;;;;;;;9.20;2.73;;;;;;;17.24;56.42;101300.31;5111387;28;20027;-67
2023/01/02 07:00:47;;;;;;;9.97;1.90;;;;;;;17.93;54.34;101300.81;5098178;27;20054;-67
2023/01/02 07:03:12;;;;;;;6.53;1.80;;;;;;;18.70;51.41;101297.25;5115767;27;20080;-66
2023/01/02 07:05:38;;;;;;;12.07;2.23;;;;;;;18.42;53.25;101303.56;5133922;27;20479;-66
2023/01/02 07:08:03;;;;;;;5.80;2.37;;;;;;;18.27;52.49;101314.66;5113890;27;20034;-67
2023/01/02 07:10:29;;;;;;;5.50;2.00;;;;;;;18.56;53.26;101311.00;5120937;27;20225;-66
2023/01/02 07:12:54;;;;;;;8.27;2.50;;;;;;;17.32;55.61;101339.72;5095671;28;20031;-66
2023/01/02 07:15:19;;;;;;;5.43;2.00;;;;;;;16.55;58.30;101348.03;5112258;28;20397;-66
2023/01/02 07:17:45;;;;;;;9.37;2.40;;;;;;;16.78;58.69;101353.53;5114016;28;20027;-66
2023/01/02 07:20:10;;;;;;;9.63;2.73;;;;;;;17.35;57.64;101355.47;5112306;28;20545;-67
2023/01/02 07:22:36;;;;;;;9.00;3.07;;;;;;;18.22;53.33;101359.81;5113477;28;20031;-67
2023/01/02 07:25:01;;;;;;;6.50;2.73;;;;;;;17.40;57.04;101359.72;5095343;28;20144;-67
2023/01/02 07:27:30;;;;;;;9.27;4.10;;;;;;;17.53;54.86;101364.63;5116530;27;20475;-67
2023/01/02 07:29:56;;;;;;;7.57;2.97;;;;;;;16.63;57.99;101378.56;5093497;28;20386;-67
2023/01/02 07:32:22;;;;;;;5.07;2.77;;;;;;;16.40;60.39;101371.28;5093888;28;20042;-67
2023/01/02 07:34:47;;;;;;;12.97;4.03;;;;;;;17.55;55.38;101378.66;5109774;28;20020;-68
2023/01/02 07:37:12;;;;;;;7.90;3.53;;;;;;;17.06;57.23;101384.50;5105786;27;20105;-68
2023/01/02 07:39:38;;;;;;;8.47;3.77;;;;;;;17.02;57.62;101395.16;5134261;27;20054;-67
2023/01/02 07:42:03;;;;;;;12.63;4.97;;;;;;;18.30;52.83;101409.81;5113921;27;20084;-67
2023/01/02 07:44:29;;;;;;;11.70;5.67;;;;;;;16.28;59.51;101419.06;5094193;28;20042;-67
2023/01/02 07:46:54;;;;;;;11.27;6.03;;;;;;;17.63;56.57;101419.81;5093929;28;20038;-67
2023/01/02 07:49:20;;;;;;;11.10;6.43;;;;;;;17.59;53.66;101427.88;5111519;28;20466;-67
2023/01/02 07:51:45;;;;;;;16.07;7.60;;;;;;;17.79;54.10;101432.53;5113308;28;20032;-68
2023/01/02 07:54:10;;;;;;;12.60;7.30;;;;;;;18.19;51.95;101443.69;5094830;28;20111;-67
2023/01/02 07:56:36;;;;;;;11.87;7.67;;;;;;;18.08;52.24;101447.56;5113725;27;20531;-67
2023/01/02 07:59:01;;;;;;;13.53;8.00;;;;;;;17.84;53.05;101451.78;5115579;27;20115;-68
2023/01/02 08:01:26;;;;;;;9.43;6.17;;;;;;;17.00;54.50;101463.03;5090845;28;20048;-67
2023/01/02 08:03:52;;;;;;;9.60;6.40;;;;;;;18.24;51.75;101462.94;5090575;28;20035;-67
2023/01/02 08:06:18;;;;;;;12.23;4.67;;;;;;;17.51;54.30;101473.03;5090596;28;20057;-68
2023/01/02 08:08:43;;;;;;;6.30;3.90;;;;;;;17.50;54.55;101478.34;5095747;28;20031;-68
2023/01/02 08:11:11;;;;;;;6.50;3.30;;;;;;;16.58;56.13;101490.44;5093864;28;20020;-68
2023/01/02 08:13:37;;;;;;;4.50;3.17;;;;;;;17.69;53.90;101478.69;5097261;28;20035;-68
2023/01/02 08:16:08;;;;;;;10.77;2.87;;;;;;;16.38;58.85;101504.97;5093310;28;20426;-68
2023/01/02 08:18:34;;;;;;;6.10;2.47;;;;;;;17.25;55.49;101497.53;5088877;28;20031;-69
2023/01/02 08:21:00;;;;;;;6.30;2.10;;;;;;;17.41;53.48;101493.56;5091502;28;20031;-68
2023/01/02 08:23:25;;;;;;;7.73;2.10;;;;;;;17.58;52.64;101484.28;5087595;28;20032;-68
2023/01/02 08:25:51;;;;;;;7.40;2.10;;;;;;;16.81;56.52;101496.91;5082613;28;20088;-68
2023/01/02 08:28:16;;;;;;;7.13;1.50;;;;;;;18.01;52.46;101501.56;5089349;28;20417;-68
2023/01/02 08:30:42;;;;;;;3.87;1.23;;;;;;;16.14;56.29;101510.81;5090450;28;20023;-67
2023/01/02 08:33:07;;;;;;;5.17;1.23;;;;;;;18.19;51.48;101507.19;5090764;28;20116;-67
2023/01/02 08:35:32;;;;;;;8.83;1.40;;;;;;;16.06;56.68;101525.06;5090069;28;20028;-68
2023/01/02 08:37:58;;;;;;;9.30;1.23;;;;;;;17.16;54.66;101534.75;5089941;28;20478;-68
2023/01/02 08:40:23;;;;;;;4.87;1.10;;;;;;;16.57;54.76;101531.81;5086668;28;20032;-67
2023/01/02 08:42:49;;;;;;;2.53;1.00;;;;;;;17.80;50.78;101530.34;5090461;28;20055;-68
2023/01/02 08:45:15;;;;;;;2.87;0.93;;;;;;;16.01;55.56;101542.72;5076949;28;20410;-68
2023/01/02 08:47:40;;;;;;;5.20;1.00;;;;;;;16.84;54.68;101552.28;5090200;28;20081;-68
2023/01/02 08:50:06;;;;;;;6.27;1.33;;;;;;;17.59;52.03;101537.09;5097001;28;20034;-67
2023/01/02 08:52:31;;;;;;;7.00;1.30;;;;;;;17.60;52.10;101552.06;5111066;28;20486;-67
2023/01/02 08:54:59;;;;;;;6.63;1.20;;;;;;;16.76;52.67;101553.34;5096287;28;20013;-68
2023/01/02 08:57:25;;;;;;;4.87;1.70;;;;;;;16.96;52.36;101555.50;5090866;28;20035;-67
2023/01/02 08:59:51;;;;;;;4.27;0.73;;;;;;;16.02;53.79;101557.66;5089543;28;20032;-67
2023/01/02 09:02:16;;;;;;;12.20;1.50;;;;;;;17.45;50.95;101555.13;5090646;28;20168;-67
2023/01/02 09:04:41;;;;;;;4.97;1.03;;;;;;;16.74;51.34;101570.97;5093305;28;20023;-68
2023/01/02 09:07:08;;;;;;;8.47;1.73;;;;;;;17.45;51.86;101563.06;5090566;28;20060;-67
2023/01/02 09:09:33;;;;;;;5.43;0.80;;;;;;;16.74;52.89;101570.97;5089020;28;20456;-67
2023/01/02 09:11:59;;;;;;;2.33;1.00;;;;;;;17.08;51.93;101580.75;5101364;28;20032;-67
2023/01/02 09:14:25;;;;;;;9.27;1.30;;;;;;;17.06;52.55;101592.25;5089020;28;20110;-68
2023/01/02 09:16:50;;;;;;;4.97;1.73;;;;;;;16.68;52.56;101601.91;5103089;28;20046;-67
2023/01/02 09:19:17;;;;;;;3.87;1.13;;;;;;;17.37;51.94;101597.63;5091214;28;20027;-67
2023/01/02 09:21:42;;;;;;;6.13;1.60;;;;;;;17.32;50.93;101603.94;5090856;28;20019;-68
2023/01/02 09:24:08;;;;;;;10.37;1.37;;;;;;;17.27;51.48;101598.78;5108135;28;20023;-67
2023/01/02 09:26:34;;;;;;;8.83;1.80;;;;;;;17.51;50.46;101599.88;5090747;28;20031;-67
2023/01/02 09:28:59;;;;;;;8.23;1.90;;;;;;;17.93;48.73;101597.00;5092611;28;20019;-68
2023/01/02 09:31:25;;;;;;;8.60;1.90;;;;;;;18.00;49.62;101596.81;5106053;28;20023;-67
2023/01/02 09:33:52;;;;;;;6.80;2.33;;;;;;;17.69;50.17;101603.81;5089040;28;20057;-67
2023/01/02 09:36:20;;;;;;;6.90;1.80;;;;;;;16.72;51.42;101604.47;5091688;28;20026;-68
2023/01/02 09:38:53;;;;;;;5.10;2.43;;;;;;;17.28;51.25;101604.03;5089860;28;20030;-68
2023/01/02 09:41:18;;;;;;;5.40;2.03;;;;;;;17.76;50.04;101597.47;5109776;28;20027;-67
2023/01/02 09:43:56;;;;;;;10.50;2.20;;;;;;;18.33;47.97;101592.31;5091918;28;20028;-68
2023/01/02 09:46:29;;;;;;;8.30;1.53;;;;;;;18.47;47.63;101599.81;5108134;28;20031;-68
2023/01/02 09:48:54;;;;;;;4.20;1.20;;;;;;;18.10;48.53;101604.44;5090006;28;20023;-67
2023/01/02 09:51:20;;;;;;;9.53;1.50;;;;;;;18.42;47.37;101599.97;5091262;28;20359;-67
2023/01/02 09:53:45;;;;;;;5.13;1.00;;;;;;;18.67;47.51;101600.97;5092205;28;20008;-68
2023/01/02 09:56:18;;;;;;;7.77;1.83;;;;;;;18.74;46.30;101610.44;5110056;28;20016;-67
2023/01/02 09:58:57;;;;;;;6.93;1.15;;;;;;;19.33;45.82;101623.53;5092003;28;20016;-67
2023/01/02 10:01:44;;;;;;;8.13;1.63;;;;;;;18.77;47.25;101626.25;5092221;28;20052;-67
2023/01/02 10:04:33;;;;;;;6.83;1.80;;;;;;;18.74;47.36;101626.34;5104913;28;20490;-67
2023/01/02 10:07:26;;;;;;;7.73;2.00;;;;;;;18.98;46.90;101635.31;5092360;28;20110;-68
2023/01/02 10:09:56;;;;;;;;;;;;;;;18.36;47.22;101642.50;5105646;28;20078;-67
2023/01/02 10:12:31;;;;;;;10.73;4.50;;;;;;;17.98;49.35;101647.09;5105775;28;19926;-68
2023/01/02 10:15:05;;;;;;;17.87;9.57;;;;;;;18.71;47.75;101637.91;5091130;28;20020;-67
2023/01/02 10:17:38;;;;;;;20.43;13.07;;;;;;;18.09;49.32;101637.13;5105579;28;20031;-68
2023/01/02 10:20:39;;;;;;;10.60;5.50;;;;;;;18.25;49.07;101631.38;5084642;28;20031;-67
2023/01/02 10:23:10;;;;;;;11.90;2.63;;;;;;;19.03;47.84;101628.09;4971868;28;20104;-67
2023/01/02 10:25:41;;;;;;;11.30;3.07;;;;;;;18.61;46.96;101631.16;5086671;28;20160;-67
2023/01/02 10:28:27;;;;;;;16.43;6.07;;;;;;;18.20;47.75;101618.25;5078523;28;20522;-67
2023/01/02 10:31:04;;;;;;;14.00;6.07;;;;;;;18.20;49.95;101623.53;5082160;28;20032;-67
2023/01/02 10:33:42;;;;;;;21.00;12.93;;;;;;;18.11;49.23;101637.06;5099302;28;20039;-67
2023/01/02 10:36:12;;;;;;;12.40;4.70;;;;;;;18.77;47.74;101640.34;5099774;28;20114;-67
2023/01/02 10:38:38;;;;;;;9.60;2.40;;;;;;;18.65;47.38;101636.28;5073566;28;20042;-67
2023/01/02 10:41:05;;;;;;;10.93;1.60;;;;;;;19.14;47.19;101641.84;5089806;28;20032;-67
2023/01/02 10:43:33;;;;;;;7.53;1.23;;;;;;;18.42;48.51;101641.44;5085180;28;20035;-67
2023/01/02 10:46:01;;;;;;;3.83;1.00;;;;;;;17.94;49.46;101650.75;5111397;28;20023;-67
2023/01/02 10:48:31;;;;;;;8.37;1.77;;;;;;;17.68;50.00;101654.97;5107635;28;20035;-67
2023/01/02 10:51:01;;;;;;;7.83;1.50;;;;;;;18.01;48.61;101660.28;5105003;27;20490;-68
2023/01/02 10:53:36;;;;;;;8.40;1.53;;;;;;;17.79;49.79;101674.03;5103142;27;20443;-67
2023/01/02 10:56:04;;;;;;;6.57;1.17;;;;;;;17.92;49.93;101653.44;5090381;27;20027;-67
2023/01/02 10:58:32;;;;;;;9.03;1.50;;;;;;;19.01;46.95;101661.69;5120048;27;20160;-67
2023/01/02 11:01:20;;;;;;;12.83;1.17;;;;;;;17.06;51.34;101672.38;5095748;28;20052;-67
2023/01/02 11:03:56;;;;;;;6.20;1.30;;;;;;;17.69;50.61;101674.31;5090949;28;20514;-67
2023/01/02 11:06:23;;;;;;;10.07;2.20;;;;;;;17.61;50.08;101669.22;5091582;28;20039;-67
2023/01/02 11:09:03;;;;;;;11.47;1.30;;;;;;;18.18;50.49;101662.41;5095938;28;20031;-67
2023/01/02 11:11:31;;;;;;;6.07;1.83;;;;;;;18.73;48.19;101683.72;5096314;28;20043;-67
2023/01/02 11:14:05;;;;;;;6.27;1.33;;;;;;;17.92;50.94;101689.59;5093831;28;20022;-67
2023/01/02 11:16:36;;;;;;;15.67;1.77;;;;;;;17.45;50.67;101696.06;5098247;28;20027;-68
2023/01/02 11:19:06;;;;;;;10.03;1.63;;;;;;;17.71;51.20;101701.56;5087919;28;20026;-67
2023/01/02 11:21:35;;;;;;;5.37;2.10;;;;;;;17.97;50.74;101698.28;5082614;28;20245;-67
2023/01/02 11:24:24;;;;;;;10.30;1.93;;;;;;;17.54;51.44;101717.88;5081940;28;20612;-67
2023/01/02 11:26:50;;;;;;;11.73;2.07;;;;;;;17.72;50.92;101725.34;5081626;28;20027;-67
2023/01/02 11:29:32;;;;;;;5.03;1.27;;;;;;;17.73;50.88;101711.19;5086558;28;20381;-68
2023/01/02 11:32:00;;;;;;;12.53;1.67;;;;;;;18.33;50.04;101705.22;5071464;28;20024;-67
2023/01/02 11:34:34;;;;;;;10.13;1.67;;;;;;;18.70;49.55;101689.13;5089110;28;20088;-67
2023/01/02 11:37:10;;;;;;;7.10;1.87;;;;;;;18.31;49.64;101699.97;5081670;28;20055;-68